Jonesport, Maine
Current Conditions -  °F | °C
As of 12:15 PM on Saturday 20 Dec 2014 (Local Time) from KBHB Reporting Station
Overcast Overcast  
Wind Chill: 16°   Ceiling: 1400
Heat Index: 27°   Visibility: 10mi
Dew Point: 25°   Wind: 12mph
Humidity: 93%   Direction: 20°NNE
Pressure: 30.31"   Gusts: NA
Location:  44.53°N, 67.6°W
Report Text: KBHB 201715Z AUTO 02010KT 10SM OVC014 M03/M04 A3031 RMK AO1
Loading
Personal Weather Stations






























Interactive Weather Map New forecast layout! Learn more

10-Day Weather Forecast

Advertisements
Track Severe Weather on mobile